sensor_id;sensor_type;location;lat;lon;timestamp;pressure;altitude;pressure_sealevel;temperature;humidity
69035;BME280;56091;55.756;37.412;2022-10-26T00:01:13;99443.34;;;2.52;67.64
69035;BME280;56091;55.756;37.412;2022-10-26T00:06:17;99442.88;;;2.42;67.54
69035;BME280;56091;55.756;37.412;2022-10-26T00:11:18;99432.22;;;2.42;67.88
69035;BME280;56091;55.756;37.412;2022-10-26T00:16:25;99433.84;;;2.37;67.85
69035;BME280;56091;55.756;37.412;2022-10-26T00:21:27;99409.63;;;2.31;68.01
69035;BME280;56091;55.756;37.412;2022-10-26T00:26:28;99420.38;;;2.45;67.93
69035;BME280;56091;55.756;37.412;2022-10-26T00:31:29;99420.81;;;2.55;67.53
69035;BME280;56091;55.756;37.412;2022-10-26T00:36:30;99428.19;;;2.53;67.35
69035;BME280;56091;55.756;37.412;2022-10-26T00:41:33;99418.34;;;2.53;67.84
69035;BME280;56091;55.756;37.412;2022-10-26T00:46:36;99423.63;;;2.40;67.52
69035;BME280;56091;55.756;37.412;2022-10-26T00:51:41;99401.72;;;2.45;67.64
69035;BME280;56091;55.756;37.412;2022-10-26T00:56:46;99418.78;;;2.57;67.51
69035;BME280;56091;55.756;37.412;2022-10-26T01:01:49;99421.25;;;2.59;67.51
69035;BME280;56091;55.756;37.412;2022-10-26T01:06:52;99418.56;;;2.59;67.34
69035;BME280;56091;55.756;37.412;2022-10-26T01:11:53;99410.59;;;2.59;67.08
69035;BME280;56091;55.756;37.412;2022-10-26T01:17:03;99416.16;;;2.64;67.40
69035;BME280;56091;55.756;37.412;2022-10-26T01:22:16;99410.59;;;2.65;67.05
69035;BME280;56091;55.756;37.412;2022-10-26T01:27:47;99419.38;;;2.59;67.03
69035;BME280;56091;55.756;37.412;2022-10-26T01:38:10;99358.38;;;2.16;67.55
69035;BME280;56091;55.756;37.412;2022-10-26T01:43:15;99365.38;;;2.24;67.39
69035;BME280;56091;55.756;37.412;2022-10-26T01:48:19;99410.47;;;2.32;67.58
69035;BME280;56091;55.756;37.412;2022-10-26T01:53:20;99413.69;;;2.21;68.13
69035;BME280;56091;55.756;37.412;2022-10-26T02:14:26;99414.09;;;1.54;70.58
69035;BME280;56091;55.756;37.412;2022-10-26T02:19:49;99421.06;;;1.34;71.00
69035;BME280;56091;55.756;37.412;2022-10-26T02:24:52;99416.84;;;1.18;71.58
69035;BME280;56091;55.756;37.412;2022-10-26T02:29:55;99422.81;;;1.20;71.59
69035;BME280;56091;55.756;37.412;2022-10-26T02:34:59;99416.13;;;1.31;71.42
69035;BME280;56091;55.756;37.412;2022-10-26T02:40:03;99399.88;;;1.41;71.31
69035;BME280;56091;55.756;37.412;2022-10-26T02:45:09;99396.44;;;1.47;70.69
69035;BME280;56091;55.756;37.412;2022-10-26T02:50:11;99410.09;;;1.65;70.28
69035;BME280;56091;55.756;37.412;2022-10-26T02:55:37;99413.22;;;1.75;70.00
69035;BME280;56091;55.756;37.412;2022-10-26T03:00:41;99384.88;;;1.61;69.90
69035;BME280;56091;55.756;37.412;2022-10-26T03:05:42;99418.16;;;1.79;69.53
69035;BME280;56091;55.756;37.412;2022-10-26T03:10:44;99412.25;;;1.83;69.34
69035;BME280;56091;55.756;37.412;2022-10-26T03:15:45;99345.31;;;1.45;69.49
69035;BME280;56091;55.756;37.412;2022-10-26T03:20:46;99411.38;;;1.76;69.67
69035;BME280;56091;55.756;37.412;2022-10-26T03:25:46;99402.81;;;1.81;69.42
69035;BME280;56091;55.756;37.412;2022-10-26T03:30:47;99403.91;;;1.93;69.16
69035;BME280;56091;55.756;37.412;2022-10-26T03:35:55;99395.31;;;1.91;69.37
69035;BME280;56091;55.756;37.412;2022-10-26T03:40:56;99397.19;;;1.97;69.08
69035;BME280;56091;55.756;37.412;2022-10-26T03:45:57;99401.31;;;2.06;68.74
69035;BME280;56091;55.756;37.412;2022-10-26T03:50:59;99402.56;;;2.10;68.69
69035;BME280;56091;55.756;37.412;2022-10-26T03:55:59;99400.13;;;2.09;68.67
69035;BME280;56091;55.756;37.412;2022-10-26T04:01:00;99396.88;;;2.13;68.42
69035;BME280;56091;55.756;37.412;2022-10-26T04:06:02;99404.22;;;2.11;68.31
69035;BME280;56091;55.756;37.412;2022-10-26T04:11:03;99391.31;;;2.08;68.37
69035;BME280;56091;55.756;37.412;2022-10-26T04:16:04;99395.38;;;2.04;68.21
69035;BME280;56091;55.756;37.412;2022-10-26T04:21:05;99408.41;;;2.27;68.15
69035;BME280;56091;55.756;37.412;2022-10-26T04:26:06;99417.00;;;2.29;67.98
69035;BME280;56091;55.756;37.412;2022-10-26T04:31:06;99423.19;;;2.37;67.47
69035;BME280;56091;55.756;37.412;2022-10-26T04:36:07;99427.13;;;2.47;67.46
69035;BME280;56091;55.756;37.412;2022-10-26T04:41:08;99432.47;;;2.54;66.77
69035;BME280;56091;55.756;37.412;2022-10-26T04:46:09;99431.69;;;2.60;66.32
69035;BME280;56091;55.756;37.412;2022-10-26T04:51:13;99425.75;;;2.65;66.37
69035;BME280;56091;55.756;37.412;2022-10-26T04:56:14;99428.22;;;2.66;66.33
69035;BME280;56091;55.756;37.412;2022-10-26T05:01:15;99437.69;;;2.76;66.21
69035;BME280;56091;55.756;37.412;2022-10-26T05:06:15;99423.13;;;2.71;65.63
69035;BME280;56091;55.756;37.412;2022-10-26T05:11:16;99434.88;;;2.90;65.51
69035;BME280;56091;55.756;37.412;2022-10-26T05:16:17;99419.69;;;2.91;65.51
69035;BME280;56091;55.756;37.412;2022-10-26T05:21:18;99417.88;;;2.98;65.42
69035;BME280;56091;55.756;37.412;2022-10-26T05:26:19;99427.34;;;3.27;65.23
69035;BME280;56091;55.756;37.412;2022-10-26T05:31:21;99420.56;;;3.45;63.95
69035;BME280;56091;55.756;37.412;2022-10-26T05:36:22;99428.56;;;3.45;63.95
69035;BME280;56091;55.756;37.412;2022-10-26T05:41:23;99405.81;;;3.36;63.76
69035;BME280;56091;55.756;37.412;2022-10-26T05:46:27;99425.94;;;3.38;63.58
69035;BME280;56091;55.756;37.412;2022-10-26T05:51:27;99424.06;;;3.39;64.26
69035;BME280;56091;55.756;37.412;2022-10-26T05:56:39;99416.47;;;3.42;63.78
69035;BME280;56091;55.756;37.412;2022-10-26T06:07:23;99431.25;;;3.65;63.62
69035;BME280;56091;55.756;37.412;2022-10-26T06:12:24;99408.25;;;3.64;63.14
69035;BME280;56091;55.756;37.412;2022-10-26T06:32:54;99432.88;;;4.64;60.10
69035;BME280;56091;55.756;37.412;2022-10-26T06:37:58;99430.53;;;4.81;59.82
69035;BME280;56091;55.756;37.412;2022-10-26T06:43:01;99398.44;;;4.88;58.43
69035;BME280;56091;55.756;37.412;2022-10-26T06:48:15;99408.88;;;5.28;57.08
69035;BME280;56091;55.756;37.412;2022-10-26T06:59:01;99418.75;;;5.78;54.80
69035;BME280;56091;55.756;37.412;2022-10-26T07:04:04;99422.50;;;5.95;54.11
69035;BME280;56091;55.756;37.412;2022-10-26T07:09:04;99431.09;;;6.04;53.56
69035;BME280;56091;55.756;37.412;2022-10-26T07:14:05;99432.38;;;6.20;53.21
69035;BME280;56091;55.756;37.412;2022-10-26T07:19:06;99427.69;;;6.34;52.69
69035;BME280;56091;55.756;37.412;2022-10-26T07:24:07;99425.50;;;6.24;52.33
69035;BME280;56091;55.756;37.412;2022-10-26T07:29:08;99431.63;;;6.50;51.67
69035;BME280;56091;55.756;37.412;2022-10-26T07:34:09;99429.00;;;6.61;51.24
69035;BME280;56091;55.756;37.412;2022-10-26T07:39:14;99432.75;;;6.60;50.65
69035;BME280;56091;55.756;37.412;2022-10-26T07:44:15;99422.81;;;6.79;50.01
69035;BME280;56091;55.756;37.412;2022-10-26T07:49:18;99426.63;;;7.02;49.70
69035;BME280;56091;55.756;37.412;2022-10-26T07:54:24;99411.72;;;7.06;49.20
69035;BME280;56091;55.756;37.412;2022-10-26T07:59:25;99430.56;;;7.30;48.82
69035;BME280;56091;55.756;37.412;2022-10-26T08:04:26;99392.41;;;7.28;48.36
69035;BME280;56091;55.756;37.412;2022-10-26T08:09:27;99441.59;;;7.52;47.95
69035;BME280;56091;55.756;37.412;2022-10-26T08:14:28;99430.25;;;7.50;47.75
69035;BME280;56091;55.756;37.412;2022-10-26T08:19:30;99417.34;;;7.16;48.21
69035;BME280;56091;55.756;37.412;2022-10-26T08:24:31;99424.38;;;7.29;48.34
69035;BME280;56091;55.756;37.412;2022-10-26T08:29:32;99420.03;;;7.28;48.40
69035;BME280;56091;55.756;37.412;2022-10-26T08:34:33;99416.31;;;7.17;48.11
69035;BME280;56091;55.756;37.412;2022-10-26T08:39:46;99420.53;;;7.37;48.28
69035;BME280;56091;55.756;37.412;2022-10-26T08:44:49;99426.28;;;7.52;47.98
69035;BME280;56091;55.756;37.412;2022-10-26T08:50:07;99433.25;;;7.41;48.15
69035;BME280;56091;55.756;37.412;2022-10-26T08:55:14;99438.41;;;7.55;47.77
69035;BME280;56091;55.756;37.412;2022-10-26T09:00:23;99389.03;;;6.90;48.65
69035;BME280;56091;55.756;37.412;2022-10-26T09:16:20;99435.41;;;7.87;47.73
69035;BME280;56091;55.756;37.412;2022-10-26T09:27:00;99414.75;;;7.63;47.55
69035;BME280;56091;55.756;37.412;2022-10-26T09:32:09;99443.47;;;7.98;47.55
69035;BME280;56091;55.756;37.412;2022-10-26T09:37:20;99434.25;;;7.71;47.93
69035;BME280;56091;55.756;37.412;2022-10-26T09:42:44;99416.72;;;7.68;48.28
69035;BME280;56091;55.756;37.412;2022-10-26T09:47:58;99420.34;;;7.74;48.09
69035;BME280;56091;55.756;37.412;2022-10-26T09:53:01;99434.38;;;7.88;48.30
69035;BME280;56091;55.756;37.412;2022-10-26T09:58:05;99439.97;;;7.86;48.07
69035;BME280;56091;55.756;37.412;2022-10-26T10:08:24;99436.34;;;7.80;47.77
69035;BME280;56091;55.756;37.412;2022-10-26T10:13:28;99431.13;;;7.86;47.80
69035;BME280;56091;55.756;37.412;2022-10-26T10:18:30;99438.34;;;7.73;47.86
69035;BME280;56091;55.756;37.412;2022-10-26T10:23:34;99431.09;;;7.74;48.31
69035;BME280;56091;55.756;37.412;2022-10-26T10:28:35;99410.75;;;7.54;48.94
69035;BME280;56091;55.756;37.412;2022-10-26T10:33:38;99426.56;;;7.74;48.83
69035;BME280;56091;55.756;37.412;2022-10-26T10:38:45;99430.84;;;7.75;49.10
69035;BME280;56091;55.756;37.412;2022-10-26T10:43:50;99400.38;;;7.70;48.69
69035;BME280;56091;55.756;37.412;2022-10-26T10:48:55;99412.78;;;7.71;49.15
69035;BME280;56091;55.756;37.412;2022-10-26T10:54:01;99434.03;;;7.96;48.92
69035;BME280;56091;55.756;37.412;2022-10-26T10:59:40;99434.00;;;8.08;48.59
69035;BME280;56091;55.756;37.412;2022-10-26T11:09:48;99406.13;;;7.97;49.44
69035;BME280;56091;55.756;37.412;2022-10-26T11:15:00;99431.69;;;7.88;49.29
69035;BME280;56091;55.756;37.412;2022-10-26T11:20:16;99427.25;;;7.93;49.51
69035;BME280;56091;55.756;37.412;2022-10-26T11:25:26;99424.56;;;7.70;50.18
69035;BME280;56091;55.756;37.412;2022-10-26T11:30:29;99399.22;;;7.54;50.40
69035;BME280;56091;55.756;37.412;2022-10-26T11:35:43;99421.50;;;7.66;49.95
69035;BME280;56091;55.756;37.412;2022-10-26T11:40:56;99398.28;;;7.60;49.57
69035;BME280;56091;55.756;37.412;2022-10-26T11:46:23;99400.84;;;7.55;49.30
69035;BME280;56091;55.756;37.412;2022-10-26T11:56:44;99405.75;;;7.70;49.14
69035;BME280;56091;55.756;37.412;2022-10-26T12:01:50;99399.44;;;7.64;50.02
69035;BME280;56091;55.756;37.412;2022-10-26T12:06:53;99392.34;;;7.58;49.99
69035;BME280;56091;55.756;37.412;2022-10-26T12:12:18;99401.31;;;7.52;49.83
69035;BME280;56091;55.756;37.412;2022-10-26T12:22:58;99371.09;;;6.91;50.22
69035;BME280;56091;55.756;37.412;2022-10-26T12:27:58;99397.28;;;7.19;50.40
69035;BME280;56091;55.756;37.412;2022-10-26T12:33:29;99393.66;;;7.13;50.17
69035;BME280;56091;55.756;37.412;2022-10-26T12:43:39;99404.34;;;7.01;50.05
69035;BME280;56091;55.756;37.412;2022-10-26T12:48:41;99395.94;;;6.98;50.56
69035;BME280;56091;55.756;37.412;2022-10-26T12:53:43;99410.59;;;6.83;50.65
69035;BME280;56091;55.756;37.412;2022-10-26T12:59:00;99394.13;;;6.80;51.33
69035;BME280;56091;55.756;37.412;2022-10-26T13:04:15;99397.56;;;6.69;51.72
69035;BME280;56091;55.756;37.412;2022-10-26T13:09:19;99398.84;;;6.66;51.51
69035;BME280;56091;55.756;37.412;2022-10-26T13:14:32;99365.81;;;6.35;51.93
69035;BME280;56091;55.756;37.412;2022-10-26T13:19:39;99397.75;;;6.55;52.17
69035;BME280;56091;55.756;37.412;2022-10-26T13:24:48;99384.16;;;6.38;52.44
69035;BME280;56091;55.756;37.412;2022-10-26T13:35:09;99392.78;;;6.03;54.31
69035;BME280;56091;55.756;37.412;2022-10-26T13:40:19;99391.84;;;5.91;54.60
69035;BME280;56091;55.756;37.412;2022-10-26T13:45:30;99385.84;;;5.71;55.30
69035;BME280;56091;55.756;37.412;2022-10-26T13:50:38;99397.34;;;5.53;56.15
69035;BME280;56091;55.756;37.412;2022-10-26T13:56:00;99400.44;;;5.50;56.29
69035;BME280;56091;55.756;37.412;2022-10-26T14:11:34;99407.50;;;5.12;57.81
69035;BME280;56091;55.756;37.412;2022-10-26T14:16:39;99403.69;;;5.01;58.53
69035;BME280;56091;55.756;37.412;2022-10-26T14:21:46;99405.72;;;5.06;58.71
69035;BME280;56091;55.756;37.412;2022-10-26T14:26:49;99395.97;;;4.86;58.74
69035;BME280;56091;55.756;37.412;2022-10-26T14:31:50;99415.28;;;4.88;59.38
69035;BME280;56091;55.756;37.412;2022-10-26T14:36:54;99412.00;;;4.86;59.77
69035;BME280;56091;55.756;37.412;2022-10-26T14:42:00;99417.75;;;4.83;59.95
69035;BME280;56091;55.756;37.412;2022-10-26T14:47:03;99414.69;;;4.80;59.99
69035;BME280;56091;55.756;37.412;2022-10-26T14:52:04;99414.94;;;4.78;60.39
69035;BME280;56091;55.756;37.412;2022-10-26T14:58:14;99403.69;;;4.63;61.01
69035;BME280;56091;55.756;37.412;2022-10-26T15:02:51;99413.19;;;4.52;61.20
69035;BME280;56091;55.756;37.412;2022-10-26T15:07:53;99405.81;;;4.47;61.76
69035;BME280;56091;55.756;37.412;2022-10-26T15:12:54;99419.94;;;4.61;62.05
69035;BME280;56091;55.756;37.412;2022-10-26T15:17:55;99422.81;;;4.60;62.34
69035;BME280;56091;55.756;37.412;2022-10-26T15:23:00;99416.88;;;4.51;62.47
69035;BME280;56091;55.756;37.412;2022-10-26T15:28:11;99413.81;;;4.47;62.70
69035;BME280;56091;55.756;37.412;2022-10-26T15:33:20;99418.50;;;4.59;62.83
69035;BME280;56091;55.756;37.412;2022-10-26T15:38:21;99415.25;;;4.50;63.12
69035;BME280;56091;55.756;37.412;2022-10-26T15:43:22;99419.75;;;4.49;63.20
69035;BME280;56091;55.756;37.412;2022-10-26T15:48:25;99424.69;;;4.53;63.02
69035;BME280;56091;55.756;37.412;2022-10-26T15:53:28;99416.28;;;4.56;63.23
69035;BME280;56091;55.756;37.412;2022-10-26T15:58:33;99422.84;;;4.53;62.92
69035;BME280;56091;55.756;37.412;2022-10-26T16:03:37;99417.09;;;4.49;63.46
69035;BME280;56091;55.756;37.412;2022-10-26T16:08:38;99421.84;;;4.47;63.27
69035;BME280;56091;55.756;37.412;2022-10-26T16:13:42;99416.09;;;4.44;63.36
69035;BME280;56091;55.756;37.412;2022-10-26T16:18:44;99413.69;;;4.29;62.83
69035;BME280;56091;55.756;37.412;2022-10-26T16:23:46;99426.63;;;4.32;63.39
69035;BME280;56091;55.756;37.412;2022-10-26T16:28:48;99411.22;;;4.27;63.43
69035;BME280;56091;55.756;37.412;2022-10-26T16:33:48;99403.66;;;4.18;63.13
69035;BME280;56091;55.756;37.412;2022-10-26T16:38:49;99416.16;;;4.24;63.37
69035;BME280;56091;55.756;37.412;2022-10-26T16:43:53;99380.50;;;3.98;63.53
69035;BME280;56091;55.756;37.412;2022-10-26T16:48:59;99394.28;;;3.95;63.59
69035;BME280;56091;55.756;37.412;2022-10-26T16:54:01;99412.31;;;4.00;64.04
69035;BME280;56091;55.756;37.412;2022-10-26T16:59:02;99421.78;;;4.02;64.29
69035;BME280;56091;55.756;37.412;2022-10-26T17:04:03;99397.97;;;3.94;64.16
69035;BME280;56091;55.756;37.412;2022-10-26T17:09:04;99387.31;;;3.87;64.34
69035;BME280;56091;55.756;37.412;2022-10-26T17:14:05;99388.72;;;3.97;64.18
69035;BME280;56091;55.756;37.412;2022-10-26T17:19:06;99402.06;;;4.03;63.97
69035;BME280;56091;55.756;37.412;2022-10-26T17:24:07;99405.31;;;4.12;63.96
69035;BME280;56091;55.756;37.412;2022-10-26T17:29:10;99406.34;;;4.11;63.81
69035;BME280;56091;55.756;37.412;2022-10-26T17:34:12;99395.47;;;4.13;63.46
69035;BME280;56091;55.756;37.412;2022-10-26T17:39:13;99395.47;;;4.06;63.25
69035;BME280;56091;55.756;37.412;2022-10-26T17:44:15;99385.63;;;4.06;63.31
69035;BME280;56091;55.756;37.412;2022-10-26T17:49:15;99382.91;;;4.13;63.29
69035;BME280;56091;55.756;37.412;2022-10-26T17:54:16;99393.41;;;4.15;63.16
69035;BME280;56091;55.756;37.412;2022-10-26T17:59:19;99396.88;;;4.15;63.36
69035;BME280;56091;55.756;37.412;2022-10-26T18:04:20;99393.38;;;4.21;63.33
69035;BME280;56091;55.756;37.412;2022-10-26T18:09:21;99396.88;;;4.22;63.48
69035;BME280;56091;55.756;37.412;2022-10-26T18:14:21;99398.31;;;4.18;63.16
69035;BME280;56091;55.756;37.412;2022-10-26T18:19:25;99372.28;;;4.00;63.52
69035;BME280;56091;55.756;37.412;2022-10-26T18:24:46;99400.59;;;4.14;63.71
69035;BME280;56091;55.756;37.412;2022-10-26T18:29:49;99382.97;;;4.06;63.75
69035;BME280;56091;55.756;37.412;2022-10-26T18:34:55;99362.66;;;3.92;63.68
69035;BME280;56091;55.756;37.412;2022-10-26T18:39:56;99396.88;;;4.15;63.58
69035;BME280;56091;55.756;37.412;2022-10-26T18:44:57;99400.19;;;4.10;63.62
69035;BME280;56091;55.756;37.412;2022-10-26T18:50:00;99387.03;;;4.09;63.47
69035;BME280;56091;55.756;37.412;2022-10-26T18:55:01;99406.75;;;4.21;63.29
69035;BME280;56091;55.756;37.412;2022-10-26T19:00:03;99393.63;;;4.06;63.61
69035;BME280;56091;55.756;37.412;2022-10-26T19:05:07;99404.47;;;4.18;63.22
69035;BME280;56091;55.756;37.412;2022-10-26T19:10:12;99398.72;;;4.15;63.32
69035;BME280;56091;55.756;37.412;2022-10-26T19:15:13;99402.63;;;4.25;63.01
69035;BME280;56091;55.756;37.412;2022-10-26T19:20:16;99403.03;;;4.29;62.88
69035;BME280;56091;55.756;37.412;2022-10-26T19:25:17;99401.16;;;4.29;62.82
69035;BME280;56091;55.756;37.412;2022-10-26T19:30:18;99405.69;;;4.29;62.75
69035;BME280;56091;55.756;37.412;2022-10-26T19:35:19;99402.16;;;4.35;62.90
69035;BME280;56091;55.756;37.412;2022-10-26T19:40:20;99397.97;;;4.53;62.36
69035;BME280;56091;55.756;37.412;2022-10-26T19:45:23;99407.81;;;4.59;61.82
69035;BME280;56091;55.756;37.412;2022-10-26T19:50:25;99407.66;;;4.54;61.88
69035;BME280;56091;55.756;37.412;2022-10-26T19:55:42;99396.56;;;4.43;61.78
69035;BME280;56091;55.756;37.412;2022-10-26T20:00:42;99406.66;;;4.48;61.87
69035;BME280;56091;55.756;37.412;2022-10-26T20:05:45;99410.13;;;4.48;61.49
69035;BME280;56091;55.756;37.412;2022-10-26T20:10:46;99387.34;;;4.39;61.32
69035;BME280;56091;55.756;37.412;2022-10-26T20:15:49;99388.56;;;4.50;61.20
69035;BME280;56091;55.756;37.412;2022-10-26T20:20:50;99385.44;;;4.53;61.11
69035;BME280;56091;55.756;37.412;2022-10-26T20:25:51;99373.59;;;4.42;61.04
69035;BME280;56091;55.756;37.412;2022-10-26T20:30:51;99372.91;;;4.54;60.92
69035;BME280;56091;55.756;37.412;2022-10-26T20:35:57;99382.13;;;4.58;60.77
69035;BME280;56091;55.756;37.412;2022-10-26T20:40:58;99377.22;;;4.55;60.31
69035;BME280;56091;55.756;37.412;2022-10-26T20:46:01;99380.88;;;4.60;60.46
69035;BME280;56091;55.756;37.412;2022-10-26T20:51:14;99387.03;;;4.61;60.00
69035;BME280;56091;55.756;37.412;2022-10-26T20:56:23;99386.41;;;4.65;60.25
69035;BME280;56091;55.756;37.412;2022-10-26T21:01:29;99376.34;;;4.67;59.98
69035;BME280;56091;55.756;37.412;2022-10-26T21:06:32;99362.38;;;4.59;60.13
69035;BME280;56091;55.756;37.412;2022-10-26T21:11:39;99358.25;;;4.63;60.08
69035;BME280;56091;55.756;37.412;2022-10-26T21:16:40;99320.78;;;4.38;60.03
69035;BME280;56091;55.756;37.412;2022-10-26T21:21:40;99371.81;;;4.68;60.20
69035;BME280;56091;55.756;37.412;2022-10-26T21:26:41;99369.72;;;4.70;60.84
69035;BME280;56091;55.756;37.412;2022-10-26T21:31:42;99371.47;;;4.51;60.67
69035;BME280;56091;55.756;37.412;2022-10-26T21:36:43;99375.81;;;4.45;60.74
69035;BME280;56091;55.756;37.412;2022-10-26T21:41:43;99366.56;;;4.48;61.28
69035;BME280;56091;55.756;37.412;2022-10-26T21:46:44;99364.47;;;4.57;60.81
69035;BME280;56091;55.756;37.412;2022-10-26T21:51:45;99370.84;;;4.56;61.13
69035;BME280;56091;55.756;37.412;2022-10-26T21:56:46;99352.97;;;4.49;60.84
69035;BME280;56091;55.756;37.412;2022-10-26T22:01:47;99353.03;;;4.43;60.83
69035;BME280;56091;55.756;37.412;2022-10-26T22:06:47;99373.53;;;4.56;61.21
69035;BME280;56091;55.756;37.412;2022-10-26T22:11:48;99366.50;;;4.61;60.82
69035;BME280;56091;55.756;37.412;2022-10-26T22:16:49;99347.81;;;4.55;60.86
69035;BME280;56091;55.756;37.412;2022-10-26T22:21:50;99358.91;;;4.58;60.72
69035;BME280;56091;55.756;37.412;2022-10-26T22:26:51;99353.53;;;4.65;60.66
69035;BME280;56091;55.756;37.412;2022-10-26T22:31:52;99352.31;;;4.61;60.93
69035;BME280;56091;55.756;37.412;2022-10-26T22:36:53;99344.75;;;4.58;60.71
69035;BME280;56091;55.756;37.412;2022-10-26T22:41:54;99352.09;;;4.62;61.28
69035;BME280;56091;55.756;37.412;2022-10-26T22:46:54;99343.34;;;4.48;60.96
69035;BME280;56091;55.756;37.412;2022-10-26T22:51:56;99334.53;;;4.41;61.08
69035;BME280;56091;55.756;37.412;2022-10-26T22:56:56;99350.31;;;4.49;61.53
69035;BME280;56091;55.756;37.412;2022-10-26T23:01:57;99333.78;;;4.27;61.21
69035;BME280;56091;55.756;37.412;2022-10-26T23:06:58;99356.50;;;4.43;61.41
69035;BME280;56091;55.756;37.412;2022-10-26T23:11:59;99345.66;;;4.38;61.37
69035;BME280;56091;55.756;37.412;2022-10-26T23:16:59;99337.66;;;4.32;60.87
69035;BME280;56091;55.756;37.412;2022-10-26T23:22:00;99338.09;;;4.28;61.35
69035;BME280;56091;55.756;37.412;2022-10-26T23:27:01;99329.25;;;4.28;61.35
69035;BME280;56091;55.756;37.412;2022-10-26T23:32:02;99331.72;;;4.29;60.86
69035;BME280;56091;55.756;37.412;2022-10-26T23:37:03;99337.09;;;4.23;61.37
69035;BME280;56091;55.756;37.412;2022-10-26T23:42:06;99334.59;;;4.28;61.35
69035;BME280;56091;55.756;37.412;2022-10-26T23:47:07;99324.34;;;4.25;60.85
69035;BME280;56091;55.756;37.412;2022-10-26T23:52:11;99330.25;;;4.34;60.87
69035;BME280;56091;55.756;37.412;2022-10-26T23:57:11;99332.75;;;4.28;60.85
